Trang, Thailand

1:07 PM ICT on August 28, 2016 (GMT +0700)
Trang | | Change Station

Elev 52 ft 7.51 °N, 99.62 °E | Updated 1 hour ago

Light Rain
Light Rain
84 °F
Feels Like 94 °F
N
7
Wind Variable Wind from SSE

Today
High -- | Low -- °F
--% Chance of Precip.
Yesterday
High -- | Low -- °F
Precip. -- in
Pressure 29.83 in
Visibility 3.7 miles
Clouds Few 1700 ft
Scattered Clouds 2300 ft
Mostly Cloudy 10000 ft
Heat Index 94 °F
Dew Point 77 °F
Humidity 79%
Rainfall 0.00 in
Snow Depth Not available.
6:14 AM 6:31 PM
Waning Crescent, 18% visible
METAR VTST 280500Z 15006KT 6000 -RA FEW017 SCT023 BKN100 29/25 Q1010 RWY08 INFO F
Pressure 29.83 in
Visibility 3.7 miles
Clouds Few 1700 ft
Scattered Clouds 2300 ft
Mostly Cloudy 10000 ft
Heat Index 94 °F
Dew Point 77 °F
Humidity 79%
Rainfall 0.00 in
Snow Depth Not available.
6:14 AM 6:31 PM
Waning Crescent, 18% visible
METAR VTST 280500Z 15006KT 6000 -RA FEW017 SCT023 BKN100 29/25 Q1010 RWY08 INFO F

10-Day Weather Forecast

No radar image for this location.
×

Almanac

Astronomy

Aug. 28, 2016 Rise Set
Actual Time
Civil Twilight
Nautical Twilight
Astronomical Twilight
Moon
Length of Visible Light
Length of Day
Tomorrow will be .
, % of the Moon is Illuminated

Today's Extremes

Country Highs Country Lows

Community

WunderPhotos

Upload Photos

1,935,533 photos uploaded!

WunderBlog® & News

Nearby

Air Quality

  Air Quality AQ Index Pollutant
Not available.

Snow Depth

Station Depth Elevation

Earthquake Activity

City Distance Mag. Time & Date
Minimum magnitude displayed is 2.5.

Coastal Water Temperatures

Place Temperature

Stations

Nearby Weather Stations

Station Location Temp. Windchill Dew Point Humidity Wind Precip. Elev Updated Type